Time;durP1;ratioP1;P1;durP2;ratioP2;P2;SDS_P1;SDS_P2;PMS_P1;PMS_P2;Temp;Humidity;BMP_temperature;BMP_pressure;BME280_temperature;BME280_humidity;BME280_pressure;Samples;Min_cycle;Max_cycle;Signal;HPM_P1;HPM_P2
2021/08/09 00:02:23;;;;;;;19.80;5.13;;;;;;;17.51;72.98;101172.72;4968005;29;20115;-84
2021/08/09 00:04:48;;;;;;;26.20;5.55;;;;;;;17.61;72.52;101180.84;4947701;29;20042;-83
2021/08/09 00:07:18;;;;;;;22.17;5.00;;;;;;;17.64;72.72;101178.81;4931363;29;20108;-83
2021/08/09 00:09:45;;;;;;;16.55;5.72;;;;;;;17.43;73.57;101181.31;4962703;29;20086;-82
2021/08/09 00:12:12;;;;;;;24.90;6.00;;;;;;;17.56;73.10;101186.56;4963179;29;20035;-85
2021/08/09 00:14:39;;;;;;;18.95;5.70;;;;;;;17.39;73.63;101179.84;4945771;29;20117;-84
2021/08/09 00:17:06;;;;;;;22.10;5.20;;;;;;;17.35;73.71;101189.06;4944875;29;20070;-83
2021/08/09 00:19:32;;;;;;;21.00;5.80;;;;;;;17.58;72.90;101173.94;4931794;29;20055;-84
2021/08/09 00:21:57;;;;;;;24.58;5.82;;;;;;;17.45;73.43;101187.38;4966065;29;20083;-82
2021/08/09 00:24:28;;;;;;;27.27;5.30;;;;;;;17.54;73.03;101193.88;4948813;29;20035;-83
2021/08/09 00:26:54;;;;;;;21.75;5.40;;;;;;;17.57;72.94;101193.63;4948840;29;20055;-83
2021/08/09 00:29:23;;;;;;;21.98;5.40;;;;;;;17.47;73.30;101192.63;4948427;29;20031;-82
2021/08/09 00:31:54;;;;;;;23.75;5.70;;;;;;;17.41;73.17;101185.94;4950296;29;20061;-83
2021/08/09 00:34:21;;;;;;;24.55;5.93;;;;;;;17.58;73.06;101181.94;4954714;23;20056;-83
2021/08/09 00:36:48;;;;;;;18.13;5.28;;;;;;;17.63;72.88;101198.50;4927702;29;20059;-83
2021/08/09 00:39:14;;;;;;;20.30;5.22;;;;;;;17.35;74.53;101192.59;4943986;29;20047;-83
2021/08/09 00:41:40;;;;;;;24.50;5.80;;;;;;;17.56;74.58;101194.56;4945183;29;20031;-83
2021/08/09 00:44:05;;;;;;;26.50;6.20;;;;;;;17.38;75.14;101194.19;4944568;29;20040;-84
2021/08/09 00:46:32;;;;;;;22.73;6.32;;;;;;;17.37;75.53;101200.50;4927908;29;20098;-86
2021/08/09 00:48:59;;;;;;;18.65;5.82;;;;;;;17.13;76.36;101190.72;4943815;29;20098;-85
2021/08/09 00:51:27;;;;;;;24.45;5.88;;;;;;;17.19;76.36;101195.59;4927435;29;20063;-85
2021/08/09 00:53:54;;;;;;;22.30;5.80;;;;;;;17.19;76.45;101204.44;4944761;29;20027;-85
2021/08/09 00:56:20;;;;;;;17.67;5.72;;;;;;;17.08;76.85;101199.06;4927622;29;20024;-84
2021/08/09 00:58:45;;;;;;;24.70;6.47;;;;;;;17.11;76.51;101195.31;4943639;29;20553;-84
2021/08/09 01:01:10;;;;;;;19.35;6.03;;;;;;;17.18;76.27;101193.88;4926358;29;20313;-84
2021/08/09 01:03:36;;;;;;;22.27;6.00;;;;;;;17.11;76.20;101193.50;4927482;29;20402;-85
2021/08/09 01:06:02;;;;;;;24.23;6.32;;;;;;;17.20;76.16;101197.28;4927600;29;20175;-84
2021/08/09 01:08:39;;;;;;;22.13;6.20;;;;;;;17.26;76.06;101220.88;4944411;29;20024;-86
2021/08/09 01:11:24;;;;;;;20.70;6.38;;;;;;;17.03;77.27;101209.22;4911741;29;20035;-85
2021/08/09 01:14:10;;;;;;;22.77;6.35;;;;;;;16.85;78.03;101208.78;4927433;29;20087;-84
2021/08/09 01:16:40;;;;;;;26.17;6.13;;;;;;;16.76;78.38;101211.16;4927867;29;20088;-86
2021/08/09 01:19:48;;;;;;;19.25;6.60;;;;;;;16.87;78.57;101205.00;4927002;29;20402;-86
2021/08/09 01:22:40;;;;;;;21.98;6.63;;;;;;;16.66;79.18;101196.78;4930327;29;20051;-86
2021/08/09 01:25:22;;;;;;;18.60;5.65;;;;;;;16.68;78.65;101201.03;4912528;29;20079;-87
2021/08/09 01:27:50;;;;;;;16.77;5.70;;;;;;;16.58;78.68;101193.81;4943007;29;20036;-85
2021/08/09 01:30:16;;;;;;;26.60;6.28;;;;;;;16.43;79.62;101196.63;4910940;29;20117;-84
2021/08/09 01:32:42;;;;;;;21.60;5.93;;;;;;;16.65;79.07;101192.38;4927128;29;20039;-84
2021/08/09 01:35:09;;;;;;;18.27;5.70;;;;;;;16.51;79.63;101199.59;4944146;29;20047;-84
2021/08/09 01:37:39;;;;;;;20.20;6.90;;;;;;;16.34;80.04;101199.97;4911828;29;20450;-85
2021/08/09 01:40:10;;;;;;;19.48;6.07;;;;;;;16.12;80.99;101197.03;4927128;29;20043;-86
2021/08/09 01:42:38;;;;;;;26.00;6.93;;;;;;;16.30;80.30;101204.69;4944128;29;20032;-86
2021/08/09 01:45:12;;;;;;;17.35;5.97;;;;;;;16.09;81.45;101205.25;4911551;29;20051;-85
2021/08/09 01:47:38;;;;;;;17.90;6.57;;;;;;;16.11;81.41;101203.34;4943900;29;20044;-84
2021/08/09 01:50:04;;;;;;;21.05;6.45;;;;;;;16.12;81.35;101214.84;4911356;29;20091;-86
2021/08/09 01:52:30;;;;;;;20.63;6.80;;;;;;;15.98;81.91;101211.34;4944180;29;20039;-86
2021/08/09 01:54:57;;;;;;;22.63;6.88;;;;;;;16.04;81.82;101202.91;4943605;29;20043;-86
2021/08/09 01:57:27;;;;;;;20.73;7.53;;;;;;;15.77;82.92;101206.50;4926847;29;20447;-84
2021/08/09 01:59:53;;;;;;;22.35;7.18;;;;;;;15.85;82.53;101226.44;4926816;29;20058;-86
2021/08/09 02:02:31;;;;;;;21.27;7.38;;;;;;;15.87;82.19;101238.72;4924036;29;20028;-86
2021/08/09 02:05:23;;;;;;;20.50;6.68;;;;;;;15.78;82.56;101234.88;4943356;29;20039;-84
2021/08/09 02:07:49;;;;;;;16.23;6.68;;;;;;;15.85;82.09;101221.09;4939624;29;20050;-85
2021/08/09 02:10:19;;;;;;;21.55;6.63;;;;;;;15.91;81.75;101226.00;4943017;29;20038;-85
2021/08/09 02:13:05;;;;;;;27.48;6.57;;;;;;;15.79;81.92;101219.72;4910620;29;20044;-85
2021/08/09 02:16:20;;;;;;;22.67;6.65;;;;;;;15.61;82.54;101222.69;4926023;29;20435;-85
2021/08/09 02:19:17;;;;;;;19.55;6.28;;;;;;;15.51;82.80;101227.81;4865815;29;20033;-84
2021/08/09 02:22:09;;;;;;;18.80;6.18;;;;;;;15.62;82.46;101227.09;4829165;29;20046;-84
2021/08/09 02:25:05;;;;;;;13.73;5.38;;;;;;;15.60;82.35;101230.78;4813826;29;20046;-84
2021/08/09 02:27:40;;;;;;;14.95;6.78;;;;;;;15.55;82.75;101236.44;4827399;29;20126;-84
2021/08/09 02:30:08;;;;;;;22.95;7.07;;;;;;;15.65;82.61;101231.34;4829081;29;20047;-84
2021/08/09 02:32:36;;;;;;;21.40;6.68;;;;;;;15.75;82.23;101235.06;4814310;29;20395;-84
2021/08/09 02:35:02;;;;;;;20.58;6.60;;;;;;;15.78;82.05;101232.19;4812331;29;20054;-84
2021/08/09 02:37:28;;;;;;;22.92;7.05;;;;;;;15.84;81.74;101236.28;4783157;29;20129;-84
2021/08/09 02:39:54;;;;;;;19.85;7.43;;;;;;;15.66;82.36;101239.25;4813460;29;20106;-84
2021/08/09 02:42:19;;;;;;;24.25;6.10;;;;;;;15.76;82.23;101239.47;4813640;29;20086;-84
2021/08/09 02:44:46;;;;;;;28.60;7.05;;;;;;;15.66;82.23;101233.03;4828847;29;20039;-84
2021/08/09 02:47:14;;;;;;;23.13;7.05;;;;;;;15.72;82.15;101237.13;4828171;29;20039;-85
2021/08/09 02:49:46;;;;;;;23.45;6.88;;;;;;;15.73;81.86;101241.47;4824276;29;20113;-84
2021/08/09 02:52:11;;;;;;;26.42;6.85;;;;;;;15.77;81.69;101241.16;4817936;29;20041;-84
2021/08/09 02:54:38;;;;;;;21.20;6.75;;;;;;;15.69;81.91;101240.81;4816706;29;20038;-84
2021/08/09 02:57:07;;;;;;;28.17;7.45;;;;;;;15.65;82.22;101245.53;4839429;29;20042;-85
2021/08/09 02:59:34;;;;;;;25.13;6.32;;;;;;;15.54;83.00;101245.41;4911960;29;20028;-85
2021/08/09 03:02:02;;;;;;;20.63;6.65;;;;;;;15.64;82.33;101249.13;4925800;29;20031;-86
2021/08/09 03:04:28;;;;;;;25.33;7.20;;;;;;;15.60;82.60;101239.66;4911547;29;20039;-85
2021/08/09 03:06:54;;;;;;;22.38;6.80;;;;;;;15.49;82.75;101245.72;4895933;29;20059;-84
2021/08/09 03:09:20;;;;;;;25.70;6.78;;;;;;;15.65;82.20;101242.00;4943567;29;20094;-84
2021/08/09 03:11:46;;;;;;;19.92;6.95;;;;;;;15.66;82.17;101251.69;4910345;29;20044;-85
2021/08/09 03:14:23;;;;;;;20.60;7.25;;;;;;;15.57;82.19;101250.53;4942085;29;20070;-85
2021/08/09 03:16:51;;;;;;;21.45;6.90;;;;;;;15.51;82.80;101246.47;4926982;29;20026;-85
2021/08/09 03:19:18;;;;;;;28.55;6.80;;;;;;;15.55;82.46;101255.97;4895413;29;20063;-84
2021/08/09 03:21:54;;;;;;;23.00;6.75;;;;;;;15.48;82.68;101253.81;4943256;29;20095;-84
2021/08/09 03:24:22;;;;;;;17.52;6.28;;;;;;;15.60;82.18;101254.78;4926977;29;20467;-85
2021/08/09 03:26:49;;;;;;;22.60;7.18;;;;;;;15.65;82.16;101258.00;4927050;29;20028;-84
2021/08/09 03:29:15;;;;;;;23.50;7.40;;;;;;;15.47;82.66;101252.13;4926778;29;20131;-83
2021/08/09 03:31:41;;;;;;;18.38;6.93;;;;;;;15.46;82.92;101259.25;4942329;29;20063;-85
2021/08/09 03:34:06;;;;;;;22.92;7.25;;;;;;;15.55;82.30;101257.75;4943301;29;20042;-85
2021/08/09 03:36:40;;;;;;;21.77;6.85;;;;;;;15.38;82.66;101264.22;4943736;29;20032;-85
2021/08/09 03:39:08;;;;;;;23.27;6.15;;;;;;;15.47;82.08;101254.78;4943487;29;20104;-85
2021/08/09 03:41:36;;;;;;;21.25;6.53;;;;;;;15.55;81.86;101263.09;4943639;29;20103;-85
2021/08/09 03:44:02;;;;;;;26.15;6.63;;;;;;;15.48;81.96;101256.47;4910708;29;20027;-85
2021/08/09 03:46:30;;;;;;;28.08;7.10;;;;;;;15.33;82.22;101264.53;4942809;29;20048;-85
2021/08/09 03:48:57;;;;;;;23.70;6.60;;;;;;;15.34;82.29;101254.75;4943528;29;20103;-85
2021/08/09 03:51:23;;;;;;;21.73;6.90;;;;;;;15.38;82.08;101267.75;4926344;29;20028;-85
2021/08/09 03:53:51;;;;;;;18.55;6.85;;;;;;;15.29;82.04;101279.03;4926448;29;20027;-85
2021/08/09 03:56:17;;;;;;;28.17;7.35;;;;;;;15.27;82.75;101268.47;4943680;29;20043;-85
2021/08/09 03:58:42;;;;;;;25.13;6.97;;;;;;;15.30;82.27;101270.94;4942918;29;20044;-85
2021/08/09 04:01:08;;;;;;;20.15;6.10;;;;;;;15.17;82.71;101268.22;4941688;29;20036;-85
2021/08/09 04:03:37;;;;;;;20.83;6.13;;;;;;;15.24;82.25;101275.81;4926130;29;20032;-85
2021/08/09 04:06:03;;;;;;;24.33;6.53;;;;;;;15.35;81.97;101275.97;4943230;29;20024;-85
2021/08/09 04:08:30;;;;;;;18.33;6.10;;;;;;;15.28;81.97;101278.16;4943041;29;20032;-84
2021/08/09 04:10:57;;;;;;;23.40;6.15;;;;;;;15.27;81.68;101276.47;4943292;29;20059;-85
2021/08/09 04:13:24;;;;;;;16.70;6.28;;;;;;;15.28;81.82;101275.50;4926372;29;20028;-84
2021/08/09 04:15:51;;;;;;;20.38;6.07;;;;;;;15.14;81.83;101273.75;4943385;29;20030;-84
2021/08/09 04:18:17;;;;;;;19.88;5.75;;;;;;;15.00;82.22;101276.47;4943208;29;20036;-84
2021/08/09 04:20:44;;;;;;;17.55;5.97;;;;;;;15.03;82.38;101285.09;4943261;29;20028;-85
2021/08/09 04:23:09;;;;;;;19.80;5.50;;;;;;;14.92;82.64;101272.50;4945240;29;20031;-84
2021/08/09 04:25:36;;;;;;;19.67;5.93;;;;;;;14.89;82.69;101270.03;4929398;29;20110;-84
2021/08/09 04:28:04;;;;;;;18.88;5.95;;;;;;;14.93;82.54;101278.69;4946568;29;20087;-83
2021/08/09 04:30:31;;;;;;;23.25;6.30;;;;;;;15.00;82.36;101282.63;4929325;29;20036;-84
2021/08/09 04:32:57;;;;;;;15.20;5.50;;;;;;;15.01;82.31;101279.03;4950086;29;20079;-84
2021/08/09 04:35:24;;;;;;;18.52;5.90;;;;;;;15.08;81.70;101282.13;4965422;23;20150;-84
2021/08/09 04:37:50;;;;;;;14.82;5.30;;;;;;;14.92;82.38;101284.97;4967657;28;20066;-82
2021/08/09 04:40:15;;;;;;;24.30;5.63;;;;;;;14.98;81.98;101273.91;4985174;28;20022;-85
2021/08/09 04:42:41;;;;;;;26.67;5.93;;;;;;;14.96;82.38;101286.47;4968029;28;20031;-84
2021/08/09 04:45:07;;;;;;;16.00;5.35;;;;;;;15.01;81.84;101288.84;4967772;28;20066;-83
2021/08/09 04:47:33;;;;;;;21.92;5.95;;;;;;;15.00;81.79;101297.78;4984570;28;20049;-84
2021/08/09 04:49:59;;;;;;;16.15;5.88;;;;;;;14.88;82.28;101286.09;4951577;28;20023;-84
2021/08/09 04:52:27;;;;;;;21.75;6.53;;;;;;;15.03;81.71;101289.59;4984988;28;20027;-84
2021/08/09 04:54:53;;;;;;;16.55;5.88;;;;;;;14.90;82.18;101297.50;4966826;28;20031;-85
2021/08/09 04:57:21;;;;;;;23.48;6.28;;;;;;;14.99;82.06;101296.91;4967559;28;20114;-86
2021/08/09 04:59:47;;;;;;;20.60;8.05;;;;;;;14.97;82.18;101303.31;4966132;28;20039;-87
2021/08/09 05:02:12;;;;;;;21.75;5.70;;;;;;;14.99;82.43;101309.38;4966270;28;20361;-87
2021/08/09 05:04:38;;;;;;;19.98;5.90;;;;;;;15.07;81.75;101315.94;4983179;28;20069;-87
2021/08/09 05:07:05;;;;;;;20.80;5.88;;;;;;;15.01;82.18;101319.00;4966247;28;20043;-85
2021/08/09 05:09:34;;;;;;;19.35;6.28;;;;;;;14.98;82.30;101316.53;4985840;28;20030;-86
2021/08/09 05:11:59;;;;;;;14.88;5.93;;;;;;;15.01;82.02;101313.66;4988554;28;20113;-85
2021/08/09 05:14:25;;;;;;;18.85;6.40;;;;;;;15.05;82.05;101314.31;4988475;28;20034;-85
2021/08/09 05:16:51;;;;;;;19.73;6.22;;;;;;;15.17;81.56;101310.00;4974623;28;20038;-85
2021/08/09 05:19:17;;;;;;;20.80;6.95;;;;;;;15.29;81.42;101308.34;4986689;28;20043;-85
2021/08/09 05:21:43;;;;;;;19.42;5.85;;;;;;;15.22;81.38;101310.53;4983939;28;20030;-86
2021/08/09 05:24:08;;;;;;;22.15;6.10;;;;;;;15.16;81.46;101314.47;4965628;28;20043;-86
2021/08/09 05:26:39;;;;;;;16.35;6.20;;;;;;;15.17;81.88;101307.34;4965683;28;20031;-86
2021/08/09 05:29:05;;;;;;;27.83;6.80;;;;;;;15.29;81.23;101311.88;4965163;28;20478;-85
2021/08/09 05:31:33;;;;;;;20.80;5.88;;;;;;;15.05;81.45;101299.19;4982790;28;20046;-84
2021/08/09 05:33:59;;;;;;;23.35;6.25;;;;;;;15.37;80.84;101310.50;4982495;28;20051;-83
2021/08/09 05:36:30;;;;;;;21.67;6.07;;;;;;;15.40;80.87;101326.28;4966484;28;20054;-84
2021/08/09 05:38:59;;;;;;;20.55;6.78;;;;;;;15.37;80.75;101329.16;4981616;28;20114;-82
2021/08/09 05:41:24;;;;;;;19.70;5.45;;;;;;;15.24;81.17;101345.94;4982726;28;20027;-81
2021/08/09 05:43:51;;;;;;;23.90;6.22;;;;;;;15.23;81.66;101327.38;4982603;28;20532;-82
2021/08/09 05:46:16;;;;;;;21.73;6.22;;;;;;;15.18;81.62;101333.00;4981405;28;20050;-82
2021/08/09 05:48:42;;;;;;;17.67;5.28;;;;;;;15.12;82.11;101344.06;4964617;28;20387;-82
2021/08/09 05:51:10;;;;;;;21.67;6.10;;;;;;;15.18;82.03;101333.88;4982592;28;20035;-85
2021/08/09 05:53:35;;;;;;;18.08;5.60;;;;;;;15.03;82.41;101329.53;4982827;28;20023;-84
2021/08/09 05:56:02;;;;;;;24.63;6.10;;;;;;;15.10;82.19;101325.53;4982368;28;20034;-83
2021/08/09 05:58:28;;;;;;;21.15;6.28;;;;;;;15.03;82.21;101325.06;4977642;28;20039;-82
2021/08/09 06:00:54;;;;;;;16.08;5.60;;;;;;;15.18;82.03;101320.56;4961347;28;20043;-81
2021/08/09 06:03:23;;;;;;;19.13;5.43;;;;;;;15.28;81.39;101335.94;4964904;28;20058;-82
2021/08/09 06:05:49;;;;;;;15.73;5.70;;;;;;;15.28;81.12;101320.78;4980236;28;20053;-80
2021/08/09 06:08:15;;;;;;;20.23;4.85;;;;;;;15.28;81.46;101327.94;4979203;28;20066;-82
2021/08/09 06:10:42;;;;;;;13.50;4.80;;;;;;;15.17;81.42;101334.81;4980545;28;20031;-81
2021/08/09 06:13:08;;;;;;;16.98;5.03;;;;;;;15.32;80.84;101330.31;4979137;28;20118;-82
2021/08/09 06:15:34;;;;;;;17.85;5.30;;;;;;;15.24;80.51;101337.94;4980469;28;20027;-81
2021/08/09 06:18:00;;;;;;;21.23;5.22;;;;;;;15.37;80.59;101339.81;4962482;28;20176;-81
2021/08/09 06:20:28;;;;;;;16.13;4.72;;;;;;;15.29;80.47;101333.19;4980194;28;20022;-80
2021/08/09 06:22:56;;;;;;;15.10;4.50;;;;;;;15.30;80.18;101329.56;4980170;28;20042;-81
2021/08/09 06:25:22;;;;;;;11.57;4.40;;;;;;;15.44;80.15;101336.63;4980216;28;20110;-83
2021/08/09 06:27:50;;;;;;;20.80;4.55;;;;;;;15.49;79.51;101343.47;4979846;28;20035;-83
2021/08/09 06:30:18;;;;;;;14.95;4.63;;;;;;;15.55;80.05;101346.59;4979196;28;20489;-83
2021/08/09 06:32:47;;;;;;;15.85;4.20;;;;;;;15.76;78.78;101346.13;4962676;28;20541;-83
2021/08/09 06:35:12;;;;;;;10.18;4.43;;;;;;;15.73;78.95;101345.47;4979109;28;20046;-83
2021/08/09 06:37:38;;;;;;;17.17;4.82;;;;;;;15.82;78.68;101339.50;4980746;28;20482;-83
2021/08/09 06:40:08;;;;;;;18.55;4.90;;;;;;;16.05;78.38;101337.13;4963883;28;20047;-83
2021/08/09 06:42:34;;;;;;;13.88;4.30;;;;;;;15.75;78.68;101351.56;4980605;28;20089;-84
2021/08/09 06:45:00;;;;;;;12.02;3.85;;;;;;;15.91;77.83;101338.00;4980744;28;20071;-84
2021/08/09 06:47:26;;;;;;;12.75;4.00;;;;;;;16.13;77.63;101349.94;4980135;28;20042;-84
2021/08/09 06:49:52;;;;;;;14.50;4.65;;;;;;;16.06;77.46;101345.03;4981350;28;20094;-83
2021/08/09 06:52:19;;;;;;;10.57;4.28;;;;;;;16.14;77.20;101354.31;4979500;28;20045;-83
2021/08/09 06:54:45;;;;;;;16.88;4.45;;;;;;;16.15;77.26;101348.00;4980700;28;20029;-83
2021/08/09 06:57:12;;;;;;;14.75;4.10;;;;;;;16.26;77.58;101345.47;4963108;28;20485;-83
2021/08/09 06:59:38;;;;;;;13.25;4.82;;;;;;;16.32;77.16;101344.16;4981750;28;20095;-82
2021/08/09 07:02:04;;;;;;;12.77;4.10;;;;;;;16.29;76.92;101350.59;4981730;28;20105;-83
2021/08/09 07:04:32;;;;;;;10.88;3.75;;;;;;;16.50;76.45;101355.41;4966322;28;20034;-84
2021/08/09 07:06:59;;;;;;;20.95;4.53;;;;;;;16.46;76.11;101348.53;4982703;28;20058;-83
2021/08/09 07:09:24;;;;;;;13.63;3.80;;;;;;;16.60;75.65;101347.56;4982733;28;20524;-83
2021/08/09 07:11:50;;;;;;;19.38;4.25;;;;;;;16.64;75.46;101345.53;4966188;28;20094;-83
2021/08/09 07:14:19;;;;;;;16.15;3.80;;;;;;;16.49;75.87;101347.50;4980193;28;20094;-83
2021/08/09 07:16:44;;;;;;;14.40;3.90;;;;;;;16.65;75.36;101345.44;4963127;28;20414;-83
2021/08/09 07:19:11;;;;;;;10.55;3.60;;;;;;;16.69;75.89;101346.91;4984231;28;20027;-84
2021/08/09 07:21:38;;;;;;;8.48;3.47;;;;;;;16.80;75.54;101343.47;4965838;28;20033;-83
2021/08/09 07:24:04;;;;;;;11.07;3.40;;;;;;;16.77;74.65;101349.03;4965505;28;20027;-82
2021/08/09 07:26:30;;;;;;;10.65;3.55;;;;;;;16.87;74.59;101345.69;4980354;28;20114;-83
2021/08/09 07:28:59;;;;;;;14.95;3.38;;;;;;;17.15;72.47;101355.28;4983610;28;20034;-82
2021/08/09 07:31:26;;;;;;;13.15;3.40;;;;;;;17.63;72.40;101363.44;4987712;28;20089;-82
2021/08/09 07:33:53;;;;;;;12.52;3.53;;;;;;;17.81;72.19;101363.84;4984328;28;20022;-83
2021/08/09 07:36:18;;;;;;;13.52;3.28;;;;;;;17.56;72.01;101355.88;4984547;28;20134;-83
2021/08/09 07:38:55;;;;;;;9.27;2.83;;;;;;;17.39;71.70;101361.59;4984147;28;20085;-81
2021/08/09 07:41:26;;;;;;;12.18;3.40;;;;;;;17.86;70.67;101359.00;4968803;28;20023;-83
2021/08/09 07:43:53;;;;;;;12.25;3.28;;;;;;;18.20;69.53;101358.25;4967924;28;20019;-83
2021/08/09 07:46:18;;;;;;;12.95;2.83;;;;;;;18.28;69.25;101358.53;4969031;28;20223;-82
2021/08/09 07:48:46;;;;;;;9.23;3.00;;;;;;;18.38;68.77;101357.81;4966113;28;20389;-82
2021/08/09 07:51:25;;;;;;;9.65;2.80;;;;;;;18.26;68.76;101360.47;4983637;28;20437;-82
2021/08/09 07:53:50;;;;;;;10.73;3.38;;;;;;;18.62;67.97;101363.03;4981869;28;20027;-82
2021/08/09 07:56:16;;;;;;;11.38;3.00;;;;;;;18.52;67.95;101348.69;4965090;28;20023;-84
2021/08/09 07:58:45;;;;;;;11.13;2.40;;;;;;;18.58;65.64;101353.56;4983575;28;20035;-83
2021/08/09 08:01:10;;;;;;;8.35;3.30;;;;;;;18.76;65.50;101363.78;4985777;28;20027;-83
2021/08/09 08:03:36;;;;;;;6.65;2.45;;;;;;;18.43;65.47;101350.28;4969571;28;20031;-83
2021/08/09 08:06:03;;;;;;;8.60;2.20;;;;;;;18.23;67.06;101357.19;4968343;28;20018;-82
2021/08/09 08:08:31;;;;;;;6.65;2.05;;;;;;;18.31;66.33;101362.78;4981208;28;20418;-83
2021/08/09 08:11:00;;;;;;;6.70;1.92;;;;;;;18.72;65.83;101360.50;4966408;28;20526;-87
2021/08/09 08:13:28;;;;;;;8.45;2.22;;;;;;;18.34;65.91;101367.06;4969376;28;20439;-85
2021/08/09 08:15:54;;;;;;;7.30;2.20;;;;;;;19.13;64.72;101363.53;4986022;28;20058;-82
2021/08/09 08:18:24;;;;;;;9.45;2.15;;;;;;;18.61;64.73;101364.03;4989266;28;20031;-82
2021/08/09 08:20:49;;;;;;;9.82;2.70;;;;;;;19.20;64.03;101358.53;4974402;28;20039;-82
2021/08/09 08:23:15;;;;;;;8.98;2.00;;;;;;;19.01;64.24;101364.50;4992122;28;20053;-82
2021/08/09 08:25:40;;;;;;;5.88;2.15;;;;;;;18.86;65.21;101366.59;4996110;28;20086;-81
2021/08/09 08:28:06;;;;;;;7.30;2.50;;;;;;;17.91;69.23;101366.69;4999318;28;20030;-83
2021/08/09 08:30:33;;;;;;;7.18;2.42;;;;;;;17.75;70.52;101375.00;4984075;28;20104;-83
2021/08/09 08:33:00;;;;;;;4.45;2.30;;;;;;;17.17;73.87;101374.75;4981730;28;20039;-82
2021/08/09 08:35:27;;;;;;;7.57;2.55;;;;;;;16.89;74.82;101386.53;4953682;23;20056;-83
2021/08/09 08:37:54;;;;;;;7.15;2.60;;;;;;;16.67;76.24;101385.38;4940706;29;20047;-83
2021/08/09 08:40:19;;;;;;;7.80;2.63;;;;;;;16.95;76.04;101386.09;4908981;29;20036;-83
2021/08/09 08:42:47;;;;;;;6.05;2.33;;;;;;;17.19;75.13;101377.31;4924210;29;20028;-85
2021/08/09 08:45:20;;;;;;;5.50;2.40;;;;;;;17.10;75.38;101372.63;4940402;29;20034;-84
2021/08/09 08:47:48;;;;;;;6.85;2.53;;;;;;;17.37;75.43;101379.59;4908422;29;20534;-84
2021/08/09 08:50:18;;;;;;;8.93;2.97;;;;;;;17.48;74.63;101376.13;4940063;29;20032;-84
2021/08/09 08:52:48;;;;;;;8.73;3.03;;;;;;;17.58;74.15;101381.63;4909111;29;20024;-83
2021/08/09 08:55:16;;;;;;;8.98;2.50;;;;;;;17.99;73.00;101380.34;4924252;29;20107;-84
2021/08/09 08:57:41;;;;;;;6.40;2.65;;;;;;;18.00;72.41;101376.69;4924838;29;20032;-83
2021/08/09 09:00:07;;;;;;;5.03;2.22;;;;;;;18.11;72.16;101380.34;4908856;29;20050;-82
2021/08/09 09:02:37;;;;;;;8.65;3.00;;;;;;;18.44;71.32;101378.75;4926886;29;20080;-82
2021/08/09 09:05:07;;;;;;;8.23;2.60;;;;;;;18.78;68.70;101377.94;4922597;29;20142;-83
2021/08/09 09:07:32;;;;;;;7.10;3.08;;;;;;;19.60;67.48;101380.31;4919170;29;20028;-82
2021/08/09 09:10:17;;;;;;;8.98;2.72;;;;;;;19.82;66.21;101376.69;4918124;29;20036;-83
2021/08/09 09:12:43;;;;;;;7.85;2.75;;;;;;;19.68;65.93;101369.81;4918998;29;20115;-83
2021/08/09 09:15:09;;;;;;;9.75;3.08;;;;;;;20.35;64.27;101366.88;4918895;29;20102;-83
2021/08/09 09:17:39;;;;;;;7.70;2.80;;;;;;;19.96;64.37;101370.16;4933353;29;20028;-84
2021/08/09 09:20:23;;;;;;;9.10;2.63;;;;;;;20.14;63.22;101361.56;4918835;29;20123;-83
2021/08/09 09:22:50;;;;;;;5.55;2.30;;;;;;;20.31;63.95;101368.16;4933027;29;20032;-84
2021/08/09 09:25:16;;;;;;;13.35;3.00;;;;;;;20.02;63.06;101366.16;4917465;29;20467;-83
2021/08/09 09:27:42;;;;;;;11.68;3.05;;;;;;;20.88;61.76;101370.34;4918860;29;20077;-83
2021/08/09 09:30:29;;;;;;;10.43;3.03;;;;;;;20.91;60.51;101366.59;4902104;29;20064;-84
2021/08/09 09:33:04;;;;;;;8.02;2.50;;;;;;;20.82;60.31;101362.00;4918390;29;20035;-82
2021/08/09 09:35:30;;;;;;;9.00;2.72;;;;;;;20.86;60.55;101358.06;4918417;29;20107;-83
2021/08/09 09:37:55;;;;;;;5.93;2.60;;;;;;;20.43;61.37;101360.84;4922409;29;20032;-82
2021/08/09 09:40:21;;;;;;;6.20;2.25;;;;;;;20.95;58.82;101365.31;4919254;29;20431;-82
2021/08/09 09:42:47;;;;;;;9.25;2.95;;;;;;;20.66;59.37;101361.50;4922107;29;20110;-83
2021/08/09 09:45:29;;;;;;;7.65;2.60;;;;;;;21.17;57.94;101349.94;4919022;29;20111;-83
2021/08/09 09:48:13;;;;;;;7.97;2.70;;;;;;;22.06;57.25;101362.56;4918550;29;20482;-83
2021/08/09 09:50:43;;;;;;;7.32;2.15;;;;;;;21.46;56.80;101357.22;4919418;29;20464;-83
2021/08/09 09:53:17;;;;;;;5.70;2.50;;;;;;;21.24;58.31;101359.16;4916993;29;20028;-83
2021/08/09 09:55:43;;;;;;;6.38;2.35;;;;;;;20.30;59.49;101363.78;4918608;29;20040;-84
2021/08/09 09:58:08;;;;;;;6.53;2.70;;;;;;;20.25;58.69;101361.50;4918300;29;20124;-83
2021/08/09 10:00:34;;;;;;;6.88;2.20;;;;;;;20.07;58.57;101355.03;4918028;29;20467;-83
2021/08/09 10:02:59;;;;;;;7.43;2.40;;;;;;;19.88;60.28;101356.53;4917012;29;20024;-83
2021/08/09 10:05:25;;;;;;;5.38;2.45;;;;;;;19.70;60.78;101353.59;4920634;29;20046;-85
2021/08/09 10:07:50;;;;;;;12.02;2.60;;;;;;;20.22;59.47;101358.22;4929785;29;20119;-83
2021/08/09 10:10:15;;;;;;;10.00;2.63;;;;;;;20.13;60.44;101362.53;4918041;29;20032;-84
2021/08/09 10:12:41;;;;;;;9.10;3.20;;;;;;;19.71;60.32;101352.59;4917084;29;20036;-83
2021/08/09 10:15:07;;;;;;;9.82;2.90;;;;;;;19.48;60.97;101355.38;4916925;29;20036;-84
2021/08/09 10:17:33;;;;;;;7.25;2.97;;;;;;;19.62;60.46;101354.22;4917841;29;20028;-84
2021/08/09 10:20:00;;;;;;;6.25;3.22;;;;;;;19.56;61.47;101366.34;4917527;29;20036;-82
2021/08/09 10:22:25;;;;;;;5.03;2.88;;;;;;;19.64;60.65;101365.69;4917756;29;20032;-84
2021/08/09 10:24:53;;;;;;;7.90;3.50;;;;;;;19.70;61.50;101369.69;4916855;29;20075;-81
2021/08/09 10:27:47;;;;;;;6.47;2.90;;;;;;;19.74;60.71;101363.06;4917718;29;20028;-84
2021/08/09 10:30:13;;;;;;;8.38;3.00;;;;;;;19.32;61.17;101358.47;4917609;29;20387;-83
2021/08/09 10:32:45;;;;;;;4.80;3.25;;;;;;;19.37;61.44;101362.50;4917485;29;20028;-83
2021/08/09 10:35:32;;;;;;;7.00;3.25;;;;;;;19.45;61.11;101366.38;4917916;29;20403;-83
2021/08/09 10:38:15;;;;;;;7.70;3.20;;;;;;;19.42;60.65;101362.13;4917341;29;20120;-83
2021/08/09 10:40:44;;;;;;;7.30;3.10;;;;;;;19.67;59.75;101362.75;4916008;29;20360;-82
2021/08/09 10:43:09;;;;;;;5.47;2.92;;;;;;;20.17;59.00;101362.16;4917302;29;20032;-83
2021/08/09 10:45:43;;;;;;;6.72;2.90;;;;;;;19.86;59.10;101370.06;4917209;29;20040;-83
2021/08/09 10:48:09;;;;;;;4.47;2.70;;;;;;;19.85;59.54;101364.84;4917117;29;20036;-83
2021/08/09 10:50:39;;;;;;;5.22;2.72;;;;;;;20.33;58.75;101368.00;4917227;29;20039;-82
2021/08/09 10:53:04;;;;;;;5.22;2.70;;;;;;;20.55;58.30;101369.69;4917199;29;20035;-83
2021/08/09 10:55:30;;;;;;;5.53;2.50;;;;;;;20.40;59.13;101374.53;4913145;29;20041;-83
2021/08/09 10:57:55;;;;;;;7.63;3.05;;;;;;;20.29;59.86;101367.41;4916585;29;20107;-82
2021/08/09 11:00:39;;;;;;;5.70;2.70;;;;;;;19.81;61.13;101369.63;4916851;29;20123;-83
2021/08/09 11:03:07;;;;;;;4.53;3.13;;;;;;;20.03;60.95;101370.53;4916706;29;20136;-82
2021/08/09 11:05:33;;;;;;;6.00;2.58;;;;;;;20.28;58.69;101373.78;4935140;29;20055;-82
2021/08/09 11:08:18;;;;;;;5.88;2.70;;;;;;;20.20;58.48;101361.03;4935179;29;20107;-83
2021/08/09 11:10:59;;;;;;;5.70;2.30;;;;;;;20.47;57.92;101373.03;4936016;29;20463;-83
2021/08/09 11:13:25;;;;;;;4.90;2.30;;;;;;;20.57;57.45;101356.13;4935641;29;20027;-83
2021/08/09 11:16:01;;;;;;;4.53;2.60;;;;;;;20.96;56.60;101356.25;4935670;29;20478;-83
2021/08/09 11:18:28;;;;;;;4.95;2.53;;;;;;;21.59;55.15;101380.28;4918126;29;20027;-82
2021/08/09 11:21:12;;;;;;;3.08;2.42;;;;;;;21.21;56.45;101366.66;4935408;29;20159;-82
2021/08/09 11:23:40;;;;;;;4.43;2.60;;;;;;;21.35;55.95;101370.78;4935626;29;20059;-83
2021/08/09 11:26:06;;;;;;;4.10;2.60;;;;;;;21.19;56.56;101358.72;4918642;29;20028;-82
2021/08/09 11:28:32;;;;;;;5.47;2.50;;;;;;;20.99;56.49;101364.06;4935431;29;20043;-83